createdAt,value
2023-01-10T00:01:05.062Z,-15.30
2023-01-10T00:03:37.070Z,-15.32
2023-01-10T00:06:09.300Z,-15.27
2023-01-10T00:08:41.551Z,-15.04
2023-01-10T00:11:24.540Z,-15.13
2023-01-10T00:13:57.641Z,-15.01
2023-01-10T00:16:29.924Z,-15.14
2023-01-10T00:19:02.045Z,-15.07
2023-01-10T00:21:34.499Z,-15.12
2023-01-10T00:24:08.640Z,-15.09
2023-01-10T00:26:43.742Z,-15.11
2023-01-10T00:29:15.810Z,-15.09
2023-01-10T00:31:47.769Z,-15.14
2023-01-10T00:34:20.178Z,-15.02
2023-01-10T00:36:53.464Z,-15.09
2023-01-10T00:39:27.494Z,-15.14
2023-01-10T00:42:17.381Z,-15.06
2023-01-10T00:44:49.510Z,-15.07
2023-01-10T00:47:21.579Z,-15.01
2023-01-10T00:49:53.638Z,-15.06
2023-01-10T00:52:25.690Z,-15.06
2023-01-10T00:54:58.326Z,-15.02
2023-01-10T00:57:30.288Z,-14.95
2023-01-10T01:00:03.279Z,-14.85
2023-01-10T01:02:35.384Z,-14.84
2023-01-10T01:05:08.099Z,-14.80
2023-01-10T01:07:40.154Z,-14.82
2023-01-10T01:10:27.444Z,-14.85
2023-01-10T01:13:02.491Z,-14.81
2023-01-10T01:15:38.233Z,-14.77
2023-01-10T01:18:11.699Z,-14.79
2023-01-10T01:20:45.927Z,-14.70
2023-01-10T01:23:18.359Z,-14.69
2023-01-10T01:25:54.458Z,-14.67
2023-01-10T01:28:27.003Z,-14.64
2023-01-10T01:30:58.983Z,-14.69
2023-01-10T01:33:31.262Z,-14.79
2023-01-10T01:36:03.367Z,-14.71
2023-01-10T01:38:35.355Z,-14.75
2023-01-10T01:41:09.797Z,-14.81
2023-01-10T01:44:05.438Z,-14.80
2023-01-10T01:46:40.288Z,-14.77
2023-01-10T01:49:16.770Z,-14.66
2023-01-10T01:51:51.381Z,-14.71
2023-01-10T01:54:23.550Z,-14.70
2023-01-10T01:56:58.518Z,-14.67
2023-01-10T01:59:39.570Z,-14.60
2023-01-10T02:02:20.428Z,-14.53
2023-01-10T02:05:13.391Z,-14.49
2023-01-10T02:07:48.976Z,-14.43
2023-01-10T02:10:35.807Z,-14.27
2023-01-10T02:13:10.295Z,-14.18
2023-01-10T02:15:42.574Z,-14.20
2023-01-10T02:18:15.787Z,-14.18
2023-01-10T02:20:48.782Z,-14.14
2023-01-10T02:23:32.412Z,-14.00
2023-01-10T02:26:40.210Z,-14.06
2023-01-10T02:29:28.834Z,-14.06
2023-01-10T02:32:16.153Z,-14.11
2023-01-10T02:35:26.987Z,-14.07
2023-01-10T02:38:20.931Z,-14.11
2023-01-10T02:41:29.019Z,-14.14
2023-01-10T02:44:18.140Z,-13.90
2023-01-10T02:46:50.968Z,-13.99
2023-01-10T02:49:23.402Z,-14.06
2023-01-10T02:51:55.964Z,-14.09
2023-01-10T02:54:30.928Z,-14.18
2023-01-10T02:57:17.759Z,-14.19
2023-01-10T03:00:02.243Z,-14.15
2023-01-10T03:02:46.970Z,-14.14
2023-01-10T03:05:40.136Z,-14.11
2023-01-10T03:08:21.231Z,-14.12
2023-01-10T03:11:01.762Z,-14.02
2023-01-10T03:13:48.640Z,-14.02
2023-01-10T03:16:23.790Z,-14.04
2023-01-10T03:19:04.542Z,-14.00
2023-01-10T03:21:39.554Z,-13.97
2023-01-10T03:24:20.226Z,-13.91
2023-01-10T03:27:01.445Z,-13.79
2023-01-10T03:29:40.181Z,-13.86
2023-01-10T03:32:15.441Z,-13.84
2023-01-10T03:34:47.932Z,-13.84
2023-01-10T03:37:25.928Z,-13.85
2023-01-10T03:40:10.324Z,-13.80
2023-01-10T03:43:14.233Z,-13.73
2023-01-10T03:45:51.898Z,-13.79
2023-01-10T03:48:26.739Z,-13.76
2023-01-10T03:51:01.813Z,-13.66
2023-01-10T03:53:39.292Z,-13.73
2023-01-10T03:56:16.486Z,-13.67
2023-01-10T03:58:48.768Z,-13.62
2023-01-10T04:01:21.250Z,-13.69
2023-01-10T04:03:53.601Z,-13.67
2023-01-10T04:06:25.725Z,-13.61
2023-01-10T04:08:57.956Z,-13.65
2023-01-10T04:11:30.350Z,-13.52
2023-01-10T04:14:02.628Z,-13.52
2023-01-10T04:16:35.008Z,-13.52
2023-01-10T04:19:07.555Z,-13.47
2023-01-10T04:21:40.099Z,-13.45
2023-01-10T04:24:12.802Z,-13.44
2023-01-10T04:26:45.016Z,-13.37
2023-01-10T04:29:17.465Z,-13.36
2023-01-10T04:31:50.275Z,-13.34
2023-01-10T04:34:22.682Z,-13.37
2023-01-10T04:36:55.178Z,-13.32
2023-01-10T04:39:27.954Z,-13.40
2023-01-10T04:42:00.876Z,-13.38
2023-01-10T04:44:33.477Z,-13.31
2023-01-10T04:47:05.615Z,-13.24
2023-01-10T04:49:37.748Z,-13.23
2023-01-10T04:52:09.790Z,-13.17
2023-01-10T04:54:42.492Z,-13.16
2023-01-10T04:57:16.722Z,-13.16
2023-01-10T04:59:49.444Z,-13.14
2023-01-10T05:02:21.737Z,-13.10
2023-01-10T05:04:53.994Z,-13.09
2023-01-10T05:07:27.552Z,-13.08
2023-01-10T05:10:00.055Z,-13.02
2023-01-10T05:12:32.832Z,-13.01
2023-01-10T05:15:05.662Z,-12.91
2023-01-10T05:17:38.093Z,-12.90
2023-01-10T05:20:11.005Z,-12.92
2023-01-10T05:22:43.238Z,-12.86
2023-01-10T05:25:15.529Z,-12.83
2023-01-10T05:27:47.727Z,-12.77
2023-01-10T05:30:20.483Z,-12.80
2023-01-10T05:32:52.810Z,-12.71
2023-01-10T05:35:26.059Z,-12.80
2023-01-10T05:37:58.519Z,-12.69
2023-01-10T05:40:31.151Z,-12.81
2023-01-10T05:43:03.266Z,-12.76
2023-01-10T05:45:35.731Z,-12.79
2023-01-10T05:48:08.893Z,-12.75
2023-01-10T05:50:41.205Z,-12.62
2023-01-10T05:53:14.999Z,-12.58
2023-01-10T05:55:55.893Z,-12.62
2023-01-10T05:58:29.596Z,-12.68
2023-01-10T06:01:03.318Z,-12.67
2023-01-10T06:03:36.638Z,-12.67
2023-01-10T06:06:09.675Z,-12.64
2023-01-10T06:08:41.838Z,-12.53
2023-01-10T06:11:14.395Z,-12.53
2023-01-10T06:13:48.213Z,-12.52
2023-01-10T06:16:20.406Z,-12.51
2023-01-10T06:18:52.638Z,-12.46
2023-01-10T06:21:24.902Z,-12.37
2023-01-10T06:23:58.049Z,-12.38
2023-01-10T06:26:30.844Z,-12.30
2023-01-10T06:29:03.249Z,-12.29
2023-01-10T06:31:35.677Z,-12.26
2023-01-10T06:34:07.879Z,-12.15
2023-01-10T06:36:42.523Z,-12.05
2023-01-10T06:39:15.108Z,-12.11
2023-01-10T06:41:47.368Z,-12.06
2023-01-10T06:44:19.363Z,-12.05
2023-01-10T06:46:51.978Z,-12.01
2023-01-10T06:49:25.514Z,-11.89
2023-01-10T06:51:59.937Z,-11.88
2023-01-10T06:54:32.519Z,-11.88
2023-01-10T06:57:06.064Z,-11.71
2023-01-10T06:59:38.708Z,-11.77
2023-01-10T07:02:15.648Z,-11.77
2023-01-10T07:04:49.777Z,-11.76
2023-01-10T07:07:22.405Z,-11.72
2023-01-10T07:09:54.978Z,-11.66
2023-01-10T07:12:27.986Z,-11.54
2023-01-10T07:15:01.429Z,-11.47
2023-01-10T07:17:34.084Z,-11.44
2023-01-10T07:20:07.604Z,-11.33
2023-01-10T07:22:39.874Z,-11.30
2023-01-10T07:25:13.740Z,-11.24
2023-01-10T07:27:46.666Z,-11.25
2023-01-10T07:30:19.463Z,-11.24
2023-01-10T07:33:01.398Z,-11.21
2023-01-10T07:35:34.020Z,-11.16
2023-01-10T07:38:06.379Z,-11.13
2023-01-10T07:40:39.141Z,-11.09
2023-01-10T07:43:12.134Z,-10.98
2023-01-10T07:45:45.754Z,-10.84
2023-01-10T07:48:19.480Z,-10.98
2023-01-10T07:50:53.721Z,-10.87
2023-01-10T07:53:27.889Z,-10.94
2023-01-10T07:56:04.207Z,-10.90
2023-01-10T07:58:36.721Z,-10.88
2023-01-10T08:01:09.284Z,-10.79
2023-01-10T08:03:41.781Z,-10.72
2023-01-10T08:06:16.631Z,-10.64
2023-01-10T08:08:48.081Z,-10.63
2023-01-10T08:11:20.282Z,-10.55
2023-01-10T08:13:52.876Z,-10.54
2023-01-10T08:16:25.010Z,-10.52
2023-01-10T08:18:57.825Z,-10.32
2023-01-10T08:21:29.917Z,-10.42
2023-01-10T08:24:02.217Z,-10.32
2023-01-10T08:26:34.849Z,-10.24
2023-01-10T08:29:07.371Z,-10.23
2023-01-10T08:31:41.023Z,-10.17
2023-01-10T08:34:15.123Z,-10.10
2023-01-10T08:36:47.628Z,-10.03
2023-01-10T08:39:22.230Z,-9.91
2023-01-10T08:41:55.038Z,-9.86
2023-01-10T08:44:27.397Z,-9.78
2023-01-10T08:47:00.136Z,-9.67
2023-01-10T08:49:32.580Z,-9.65
2023-01-10T08:52:06.469Z,-9.57
2023-01-10T08:54:38.755Z,-9.56
2023-01-10T08:57:11.053Z,-9.47
2023-01-10T08:59:43.299Z,-9.37
2023-01-10T09:02:15.936Z,-9.34
2023-01-10T09:04:48.519Z,-9.24
2023-01-10T09:07:20.510Z,-9.20
2023-01-10T09:09:52.614Z,-9.14
2023-01-10T09:12:42.542Z,-9.05
2023-01-10T09:15:14.609Z,-9.06
2023-01-10T09:17:46.990Z,-8.94
2023-01-10T09:20:19.611Z,-8.90
2023-01-10T09:22:52.098Z,-8.88
2023-01-10T09:25:25.219Z,-8.80
2023-01-10T09:28:02.253Z,-8.73
2023-01-10T09:30:34.736Z,-8.64
2023-01-10T09:33:08.847Z,-8.59
2023-01-10T09:35:42.839Z,-8.54
2023-01-10T09:38:19.140Z,-8.43
2023-01-10T09:41:15.476Z,-8.51
2023-01-10T09:43:59.249Z,-8.53
2023-01-10T09:46:58.276Z,-8.50
2023-01-10T09:49:41.863Z,-8.50
2023-01-10T09:52:22.390Z,-8.56
2023-01-10T09:54:56.965Z,-8.58
2023-01-10T09:57:29.340Z,-8.58
2023-01-10T10:00:02.800Z,-8.62
2023-01-10T10:02:38.587Z,-8.65
2023-01-10T10:05:16.291Z,-8.72
2023-01-10T10:07:51.219Z,-8.72
2023-01-10T10:10:26.417Z,-8.70
2023-01-10T10:13:27.001Z,-8.73
2023-01-10T10:16:11.303Z,-8.71
2023-01-10T10:18:52.170Z,-8.65
2023-01-10T10:21:45.183Z,-8.61
2023-01-10T10:24:23.476Z,-8.64
2023-01-10T10:27:02.412Z,-8.57
2023-01-10T10:29:43.420Z,-8.67
2023-01-10T10:32:30.525Z,-8.64
2023-01-10T10:35:11.375Z,-8.61
2023-01-10T10:37:46.536Z,-8.42
2023-01-10T10:40:27.255Z,-8.10
2023-01-10T10:43:02.238Z,-7.85
2023-01-10T10:45:40.961Z,-7.66
2023-01-10T10:48:19.306Z,-7.49
2023-01-10T10:51:06.291Z,-7.26
2023-01-10T10:53:39.104Z,-7.29
2023-01-10T10:56:14.434Z,-7.22
2023-01-10T10:58:49.429Z,-7.26
2023-01-10T11:01:25.421Z,-7.28
2023-01-10T11:04:11.721Z,-7.13
2023-01-10T11:06:48.519Z,-6.93
2023-01-10T11:09:31.651Z,-7.04
2023-01-10T11:12:05.848Z,-7.06
2023-01-10T11:14:49.991Z,-7.15
2023-01-10T11:17:27.183Z,-7.26
2023-01-10T11:20:04.494Z,-7.38
2023-01-10T11:22:42.490Z,-7.64
2023-01-10T11:25:18.001Z,-7.86
2023-01-10T11:27:56.701Z,-8.09
2023-01-10T11:30:32.111Z,-8.14
2023-01-10T11:33:07.585Z,-8.24
2023-01-10T11:35:42.092Z,-8.27
2023-01-10T11:38:26.568Z,-8.30
2023-01-10T11:41:07.669Z,-8.30
2023-01-10T11:43:41.822Z,-8.29
2023-01-10T11:46:23.202Z,-8.15
2023-01-10T11:49:11.220Z,-8.22
2023-01-10T11:51:46.150Z,-8.23
2023-01-10T11:54:24.330Z,-8.13
2023-01-10T11:57:11.482Z,-8.17
2023-01-10T11:59:54.832Z,-8.18
2023-01-10T12:02:33.404Z,-8.16
2023-01-10T12:05:09.314Z,-8.10
2023-01-10T12:08:06.588Z,-8.04
2023-01-10T12:10:39.053Z,-8.03
2023-01-10T12:13:18.353Z,-8.00
2023-01-10T12:15:50.528Z,-7.97
2023-01-10T12:18:22.817Z,-7.89
2023-01-10T12:20:56.367Z,-7.86
2023-01-10T12:23:29.247Z,-7.92
2023-01-10T12:26:11.431Z,-7.83
2023-01-10T12:28:37.838Z,-8.01
2023-01-10T12:31:17.392Z,-8.04
2023-01-10T12:34:01.217Z,-8.22
2023-01-10T12:36:34.008Z,-8.32
2023-01-10T12:39:13.114Z,-8.23
2023-01-10T12:42:05.767Z,-8.32
2023-01-10T12:44:41.574Z,-8.39
2023-01-10T12:47:16.515Z,-8.57
2023-01-10T12:49:54.613Z,-8.59
2023-01-10T12:52:32.196Z,-8.65
2023-01-10T12:55:04.921Z,-8.67
2023-01-10T12:57:40.387Z,-8.68
2023-01-10T13:00:18.476Z,-8.61
2023-01-10T13:02:52.900Z,-8.66
2023-01-10T13:05:28.826Z,-8.74
2023-01-10T13:08:09.955Z,-8.73
2023-01-10T13:10:44.941Z,-8.70
2023-01-10T13:13:32.189Z,-8.75
2023-01-10T13:16:35.609Z,-8.80
2023-01-10T13:19:10.718Z,-8.84
2023-01-10T13:21:44.456Z,-8.78
2023-01-10T13:24:26.625Z,-8.87
2023-01-10T13:27:04.179Z,-8.86
2023-01-10T13:29:47.091Z,-8.90
2023-01-10T13:32:25.019Z,-8.94
2023-01-10T13:34:59.798Z,-8.80
2023-01-10T13:37:39.251Z,-8.94
2023-01-10T13:40:14.443Z,-9.00
2023-01-10T13:43:04.470Z,-9.04
2023-01-10T13:45:38.732Z,-9.03
2023-01-10T13:48:27.233Z,-9.07
2023-01-10T13:51:02.375Z,-9.08
2023-01-10T13:53:37.622Z,-9.07
2023-01-10T13:56:31.040Z,-8.94
2023-01-10T13:59:23.952Z,-9.00
2023-01-10T14:02:16.323Z,-9.00
2023-01-10T14:04:51.964Z,-9.03
2023-01-10T14:07:30.284Z,-9.02
2023-01-10T14:10:08.925Z,-8.99
2023-01-10T14:12:53.337Z,-9.03
2023-01-10T14:15:34.857Z,-9.02
2023-01-10T14:18:10.315Z,-9.09
2023-01-10T14:20:44.184Z,-9.13
2023-01-10T14:23:19.234Z,-9.19
2023-01-10T14:25:56.680Z,-9.20
2023-01-10T14:28:32.546Z,-9.22
2023-01-10T14:31:10.969Z,-9.27
2023-01-10T14:33:45.254Z,-9.32
2023-01-10T14:36:20.232Z,-9.33
2023-01-10T14:38:56.929Z,-9.25
2023-01-10T14:41:32.296Z,-9.31
2023-01-10T14:44:25.405Z,-9.29
2023-01-10T14:46:59.127Z,-9.26
2023-01-10T14:49:34.224Z,-9.15
2023-01-10T14:52:20.692Z,-9.15
2023-01-10T14:55:17.000Z,-9.01
2023-01-10T14:58:00.170Z,-8.85
2023-01-10T15:00:36.584Z,-8.94
2023-01-10T15:03:10.453Z,-8.84
2023-01-10T15:05:50.002Z,-8.91
2023-01-10T15:08:25.472Z,-8.95
2023-01-10T15:11:09.288Z,-8.97
2023-01-10T15:13:44.277Z,-8.86
2023-01-10T15:18:53.913Z,-8.96
2023-01-10T15:21:26.693Z,-8.95
2023-01-10T15:23:58.973Z,-8.98
2023-01-10T15:26:33.878Z,-9.01
2023-01-10T15:29:15.044Z,-8.99
2023-01-10T15:31:47.784Z,-8.97
2023-01-10T15:34:22.866Z,-9.00
2023-01-10T15:36:58.029Z,-9.00
2023-01-10T15:39:32.968Z,-9.02
2023-01-10T15:42:10.368Z,-8.88
2023-01-10T15:44:46.636Z,-8.94
2023-01-10T15:47:44.705Z,-9.00
2023-01-10T15:50:28.635Z,-8.99
2023-01-10T15:53:01.437Z,-8.93
2023-01-10T15:55:54.248Z,-8.87
2023-01-10T15:58:37.121Z,-9.04
2023-01-10T16:01:10.977Z,-9.04
2023-01-10T16:03:57.229Z,-8.99
2023-01-10T16:06:32.055Z,-8.93
2023-01-10T16:09:09.498Z,-8.92
2023-01-10T16:12:08.082Z,-8.96
2023-01-10T16:14:40.300Z,-8.96
2023-01-10T16:17:12.766Z,-8.93
2023-01-10T16:19:44.852Z,-8.97
2023-01-10T16:22:20.351Z,-8.97
2023-01-10T16:24:53.005Z,-9.00
2023-01-10T16:27:25.214Z,-8.98
2023-01-10T16:29:57.539Z,-8.99
2023-01-10T16:32:29.538Z,-8.91
2023-01-10T16:35:02.753Z,-8.93
2023-01-10T16:37:34.239Z,-8.78
2023-01-10T16:40:14.892Z,-8.57
2023-01-10T16:43:04.688Z,-8.54
2023-01-10T16:45:36.823Z,-8.62
2023-01-10T16:48:09.229Z,-8.71
2023-01-10T16:50:42.528Z,-8.78
2023-01-10T16:53:16.469Z,-8.82
2023-01-10T16:55:50.856Z,-8.76
2023-01-10T16:58:24.939Z,-8.80
2023-01-10T17:00:59.131Z,-8.84
2023-01-10T17:03:34.596Z,-8.88
2023-01-10T17:06:06.964Z,-8.86
2023-01-10T17:08:39.070Z,-8.89
2023-01-10T17:11:22.779Z,-8.95
2023-01-10T17:13:55.516Z,-8.96
2023-01-10T17:16:27.459Z,-8.95
2023-01-10T17:18:59.624Z,-9.01
2023-01-10T17:21:32.061Z,-8.97
2023-01-10T17:24:04.457Z,-9.04
2023-01-10T17:26:36.694Z,-9.06
2023-01-10T17:29:08.716Z,-9.08
2023-01-10T17:31:40.924Z,-8.93
2023-01-10T17:34:13.201Z,-9.00
2023-01-10T17:36:45.391Z,-9.05
2023-01-10T17:39:17.532Z,-9.02
2023-01-10T17:41:49.617Z,-9.02
2023-01-10T17:44:21.866Z,-8.95
2023-01-10T17:46:55.543Z,-8.98
2023-01-10T17:49:26.645Z,-8.96
2023-01-10T17:51:58.919Z,-8.89
2023-01-10T17:54:31.166Z,-8.92
2023-01-10T17:57:04.370Z,-8.95
2023-01-10T17:59:36.861Z,-8.96
2023-01-10T18:02:12.031Z,-9.00
2023-01-10T18:04:44.238Z,-9.00
2023-01-10T18:07:16.159Z,-9.01
2023-01-10T18:09:48.173Z,-9.03
2023-01-10T18:12:20.210Z,-9.05
2023-01-10T18:14:52.217Z,-9.01
2023-01-10T18:17:24.129Z,-8.95
2023-01-10T18:19:56.197Z,-8.98
2023-01-10T18:22:46.334Z,-9.00
2023-01-10T18:25:19.492Z,-8.98
2023-01-10T18:27:52.456Z,-8.96
2023-01-10T18:30:25.323Z,-8.96
2023-01-10T18:32:57.519Z,-8.99
2023-01-10T18:35:30.338Z,-8.99
2023-01-10T18:38:02.308Z,-8.93
2023-01-10T18:40:34.531Z,-9.03
2023-01-10T18:43:06.650Z,-9.02
2023-01-10T18:45:38.628Z,-9.00
2023-01-10T18:48:11.392Z,-9.03
2023-01-10T18:50:44.785Z,-9.03
2023-01-10T18:53:17.017Z,-9.01
2023-01-10T18:56:04.306Z,-9.05
2023-01-10T18:58:38.989Z,-9.09
2023-01-10T19:01:13.705Z,-9.07
2023-01-10T19:03:46.821Z,-9.06
2023-01-10T19:06:22.633Z,-9.07
2023-01-10T19:08:55.364Z,-9.01
2023-01-10T19:11:27.649Z,-9.03
2023-01-10T19:13:59.782Z,-8.93
2023-01-10T19:16:35.385Z,-8.94
2023-01-10T19:19:11.607Z,-8.93
2023-01-10T19:21:43.699Z,-8.99
2023-01-10T19:24:31.918Z,-9.00
2023-01-10T19:27:04.983Z,-9.00
2023-01-10T19:29:37.443Z,-9.01
2023-01-10T19:32:09.418Z,-9.03
2023-01-10T19:34:41.513Z,-9.03
2023-01-10T19:37:13.578Z,-8.99
2023-01-10T19:39:45.589Z,-8.95
2023-01-10T19:42:17.453Z,-8.97
2023-01-10T19:44:49.455Z,-8.95
2023-01-10T19:47:21.491Z,-8.89
2023-01-10T19:49:53.252Z,-8.88
2023-01-10T19:52:25.400Z,-8.90
2023-01-10T19:54:57.179Z,-8.90
2023-01-10T19:57:29.177Z,-8.95
2023-01-10T20:00:01.139Z,-8.94
2023-01-10T20:02:35.672Z,-8.93
2023-01-10T20:05:07.877Z,-9.02
2023-01-10T20:07:40.135Z,-9.03
2023-01-10T20:10:12.404Z,-9.04
2023-01-10T20:12:44.602Z,-9.07
2023-01-10T20:15:17.109Z,-9.08
2023-01-10T20:17:49.067Z,-9.09
2023-01-10T20:20:21.026Z,-9.10
2023-01-10T20:22:55.479Z,-9.15
2023-01-10T20:25:28.079Z,-9.18
2023-01-10T20:28:00.043Z,-9.23
2023-01-10T20:30:32.372Z,-9.23
2023-01-10T20:33:04.372Z,-9.20
2023-01-10T20:35:36.434Z,-9.12
2023-01-10T20:38:09.557Z,-9.16
2023-01-10T20:40:44.583Z,-9.16
2023-01-10T20:43:17.800Z,-9.11
2023-01-10T20:45:49.907Z,-9.15
2023-01-10T20:48:22.481Z,-9.16
2023-01-10T20:50:54.710Z,-9.12
2023-01-10T20:53:26.743Z,-9.10
2023-01-10T20:56:03.610Z,-9.10
2023-01-10T20:58:36.188Z,-9.17
2023-01-10T21:01:09.509Z,-9.17
2023-01-10T21:03:42.010Z,-9.25
2023-01-10T21:06:15.065Z,-9.13
2023-01-10T21:08:48.339Z,-9.23
2023-01-10T21:11:21.945Z,-9.27
2023-01-10T21:13:53.494Z,-9.28
2023-01-10T21:16:25.810Z,-9.20
2023-01-10T21:18:57.928Z,-9.26
2023-01-10T21:21:30.070Z,-9.28
2023-01-10T21:24:02.079Z,-9.26
2023-01-10T21:26:34.188Z,-9.21
2023-01-10T21:29:06.305Z,-9.22
2023-01-10T21:31:38.608Z,-9.18
2023-01-10T21:34:12.116Z,-9.19
2023-01-10T21:36:44.104Z,-9.12
2023-01-10T21:39:17.745Z,-9.15
2023-01-10T21:42:06.269Z,-9.15
2023-01-10T21:44:38.693Z,-9.05
2023-01-10T21:47:10.632Z,-9.15
2023-01-10T21:49:42.552Z,-9.14
2023-01-10T21:52:15.020Z,-9.14
2023-01-10T21:54:47.114Z,-9.13
2023-01-10T21:57:20.636Z,-9.14
2023-01-10T21:59:52.220Z,-9.16
2023-01-10T22:02:27.285Z,-9.06
2023-01-10T22:04:59.342Z,-9.13
2023-01-10T22:07:32.899Z,-9.06
2023-01-10T22:10:06.128Z,-9.14
2023-01-10T22:12:38.200Z,-9.10
2023-01-10T22:15:11.442Z,-9.26
2023-01-10T22:17:43.672Z,-9.32
2023-01-10T22:20:16.989Z,-9.34
2023-01-10T22:22:49.328Z,-9.39
2023-01-10T22:25:21.326Z,-9.43
2023-01-10T22:27:53.621Z,-9.49
2023-01-10T22:30:26.285Z,-9.46
2023-01-10T22:32:59.206Z,-9.50
2023-01-10T22:35:31.933Z,-9.55
2023-01-10T22:38:04.097Z,-9.51
2023-01-10T22:40:36.362Z,-9.55
2023-01-10T22:43:08.261Z,-9.61
2023-01-10T22:45:46.485Z,-9.63
2023-01-10T22:48:18.554Z,-9.65
2023-01-10T22:50:51.233Z,-9.67
2023-01-10T22:53:23.287Z,-9.69
2023-01-10T22:55:56.339Z,-9.66
2023-01-10T22:58:28.713Z,-9.63
2023-01-10T23:01:00.693Z,-9.65
2023-01-10T23:03:33.050Z,-9.64
2023-01-10T23:06:05.322Z,-9.65
2023-01-10T23:08:39.704Z,-9.64
2023-01-10T23:11:14.331Z,-9.63
2023-01-10T23:13:47.402Z,-9.64
2023-01-10T23:16:26.397Z,-9.61
2023-01-10T23:19:02.256Z,-9.53
2023-01-10T23:21:34.237Z,-9.51
2023-01-10T23:24:07.102Z,-9.58
2023-01-10T23:26:39.289Z,-9.56
2023-01-10T23:29:10.996Z,-9.50
2023-01-10T23:31:43.170Z,-9.64
2023-01-10T23:34:15.044Z,-9.67
2023-01-10T23:36:47.249Z,-9.66
2023-01-10T23:39:19.154Z,-9.68
2023-01-10T23:41:51.411Z,-9.63
2023-01-10T23:44:23.513Z,-9.69
2023-01-10T23:46:56.370Z,-9.72
2023-01-10T23:49:28.328Z,-9.66
2023-01-10T23:52:00.575Z,-9.69
2023-01-10T23:54:32.559Z,-9.65
2023-01-10T23:57:04.898Z,-9.60
2023-01-10T23:59:37.248Z,-9.60
